createdAt,value
2023-12-14T00:01:25.958Z,-18351.47
2023-12-14T00:04:28.960Z,-18349.69
2023-12-14T00:07:31.561Z,-18348.84
2023-12-14T00:10:35.727Z,-18347.63
2023-12-14T00:13:38.378Z,-18347.47
2023-12-14T00:16:41.726Z,-18346.66
2023-12-14T00:19:44.433Z,-18346.09
2023-12-14T00:22:47.360Z,-18349.28
2023-12-14T00:25:50.085Z,-18349.81
2023-12-14T00:28:58.314Z,-18349.97
2023-12-14T00:32:04.020Z,-18350.38
2023-12-14T00:35:07.235Z,-18349.97
2023-12-14T00:38:10.115Z,-18348.72
2023-12-14T00:41:13.082Z,-18349.97
2023-12-14T00:44:15.570Z,-18352.44
2023-12-14T00:47:18.540Z,-18353.25
2023-12-14T00:50:20.965Z,-18354.91
2023-12-14T00:53:23.643Z,-18355.47
2023-12-14T00:56:26.346Z,-18356.00
2023-12-14T00:59:30.882Z,-18358.50
2023-12-14T01:02:33.938Z,-18360.28
2023-12-14T01:05:36.748Z,-18361.09
2023-12-14T01:08:39.319Z,-18361.09
2023-12-14T01:11:41.917Z,-18361.66
2023-12-14T01:14:44.597Z,-18361.50
2023-12-14T01:17:47.499Z,-18361.66
2023-12-14T01:20:50.187Z,-18362.06
2023-12-14T01:23:53.463Z,-18362.06
2023-12-14T01:26:55.968Z,-18362.59
2023-12-14T01:29:58.795Z,-18362.19
2023-12-14T01:33:01.206Z,-18360.69
2023-12-14T01:36:04.245Z,-18361.09
2023-12-14T01:39:06.921Z,-18359.88
2023-12-14T01:42:09.721Z,-18361.50
2023-12-14T01:45:14.538Z,-18360.00
2023-12-14T01:48:17.758Z,-18359.31
2023-12-14T01:51:20.370Z,-18357.78
2023-12-14T01:54:22.944Z,-18354.38
2023-12-14T01:57:25.678Z,-18352.03
2023-12-14T02:00:32.874Z,-18352.31
2023-12-14T02:03:35.794Z,-18349.69
2023-12-14T02:06:38.809Z,-18351.34
2023-12-14T02:09:41.466Z,-18348.84
2023-12-14T02:12:43.862Z,-18347.22
2023-12-14T02:15:46.540Z,-18351.59
2023-12-14T02:18:49.165Z,-18350.78
2023-12-14T02:21:52.141Z,-18350.66
2023-12-14T02:24:54.458Z,-18349.97
2023-12-14T02:27:57.294Z,-18348.84
2023-12-14T02:30:59.911Z,-18351.59
2023-12-14T02:34:02.640Z,-18351.47
2023-12-14T02:37:05.186Z,-18351.06
2023-12-14T02:40:08.547Z,-18349.97
2023-12-14T02:43:11.147Z,-18352.72
2023-12-14T02:46:16.670Z,-18351.06
2023-12-14T02:49:19.522Z,-18352.56
2023-12-14T02:52:22.837Z,-18351.75
2023-12-14T02:55:25.535Z,-18353.53
2023-12-14T02:58:28.399Z,-18354.38
2023-12-14T03:01:30.801Z,-18353.81
2023-12-14T03:04:33.655Z,-18354.38
2023-12-14T03:07:36.044Z,-18356.28
2023-12-14T03:10:38.949Z,-18356.97
2023-12-14T03:13:41.581Z,-18359.31
2023-12-14T03:16:44.487Z,-18364.25
2023-12-14T03:19:47.080Z,-18363.03
2023-12-14T03:22:49.996Z,-18364.13
2023-12-14T03:25:52.583Z,-18364.13
2023-12-14T03:28:55.457Z,-18364.13
2023-12-14T03:31:58.251Z,-18366.47
2023-12-14T03:35:01.240Z,-18365.22
2023-12-14T03:38:03.636Z,-18362.75
2023-12-14T03:41:06.539Z,-18360.97
2023-12-14T03:44:09.229Z,-18358.75
2023-12-14T03:47:12.091Z,-18358.75
2023-12-14T03:50:14.461Z,-18356.41
2023-12-14T03:53:17.387Z,-18358.91
2023-12-14T03:56:19.681Z,-18356.84
2023-12-14T03:59:22.441Z,-18355.59
2023-12-14T04:02:24.980Z,-18357.66
2023-12-14T04:05:27.783Z,-18359.19
2023-12-14T04:08:30.372Z,-18359.03
2023-12-14T04:11:33.256Z,-18358.22
2023-12-14T04:14:35.780Z,-18359.59
2023-12-14T04:17:38.872Z,-18358.91
2023-12-14T04:20:41.460Z,-18360.28
2023-12-14T04:23:44.431Z,-18358.22
2023-12-14T04:26:47.035Z,-18357.66
2023-12-14T04:29:49.620Z,-18356.69
2023-12-14T04:32:53.213Z,-18354.63
2023-12-14T04:35:55.809Z,-18356.00
2023-12-14T04:38:58.303Z,-18353.53
2023-12-14T04:42:00.865Z,-18353.13
2023-12-14T04:45:03.613Z,-18352.31
2023-12-14T04:48:06.662Z,-18356.56
2023-12-14T04:51:12.209Z,-18356.16
2023-12-14T04:54:14.882Z,-18355.31
2023-12-14T04:57:17.431Z,-18356.97
2023-12-14T05:00:20.387Z,-18352.16
2023-12-14T05:03:22.971Z,-18351.34
2023-12-14T05:06:25.837Z,-18350.94
2023-12-14T05:09:29.196Z,-18352.16
2023-12-14T05:12:32.942Z,-18352.16
2023-12-14T05:15:35.461Z,-18351.34
2023-12-14T05:18:38.105Z,-18351.19
2023-12-14T05:21:40.741Z,-18351.59
2023-12-14T05:24:45.684Z,-18352.44
2023-12-14T05:27:48.266Z,-18351.47
2023-12-14T05:30:50.847Z,-18350.78
2023-12-14T05:33:53.550Z,-18354.38
2023-12-14T05:36:56.462Z,-18352.03
2023-12-14T05:39:59.031Z,-18350.94
2023-12-14T05:43:01.663Z,-18349.41
2023-12-14T05:46:04.916Z,-18351.47
2023-12-14T05:49:07.998Z,-18350.78
2023-12-14T05:52:11.080Z,-18352.16
2023-12-14T05:55:14.049Z,-18352.16
2023-12-14T05:58:16.447Z,-18352.56
2023-12-14T06:01:19.594Z,-18352.72
2023-12-14T06:04:22.782Z,-18353.25
2023-12-14T06:07:25.435Z,-18353.25
2023-12-14T06:10:28.126Z,-18351.88
2023-12-14T06:13:30.654Z,-18351.06
2023-12-14T06:16:33.355Z,-18350.78
2023-12-14T06:19:35.950Z,-18349.13
2023-12-14T06:22:39.171Z,-18347.91
2023-12-14T06:25:41.864Z,-18349.13
2023-12-14T06:28:44.754Z,-18350.78
2023-12-14T06:31:47.536Z,-18349.41
2023-12-14T06:34:52.201Z,-18351.19
2023-12-14T06:37:55.112Z,-18352.03
2023-12-14T06:40:58.093Z,-18354.09
2023-12-14T06:44:00.557Z,-18352.84
2023-12-14T06:47:03.323Z,-18352.31
2023-12-14T06:50:06.273Z,-18352.03
2023-12-14T06:53:09.338Z,-18353.53
2023-12-14T06:56:12.609Z,-18351.88
2023-12-14T06:59:16.917Z,-18351.88
2023-12-14T07:02:19.350Z,-18352.44
2023-12-14T07:05:22.130Z,-18354.63
2023-12-14T07:08:26.897Z,-18355.75
2023-12-14T07:11:30.268Z,-18355.31
2023-12-14T07:14:32.817Z,-18357.38
2023-12-14T07:17:35.754Z,-18357.53
2023-12-14T07:20:38.400Z,-18358.34
2023-12-14T07:23:41.291Z,-18357.94
2023-12-14T07:26:43.903Z,-18360.28
2023-12-14T07:29:46.642Z,-18361.50
2023-12-14T07:32:49.360Z,-18365.09
2023-12-14T07:35:52.379Z,-18365.91
2023-12-14T07:38:55.785Z,-18367.56
2023-12-14T07:41:58.677Z,-18368.13
2023-12-14T07:45:01.073Z,-18366.59
2023-12-14T07:48:05.225Z,-18366.88
2023-12-14T07:51:07.803Z,-18369.22
2023-12-14T07:54:10.725Z,-18368.81
2023-12-14T07:57:13.047Z,-18367.97
2023-12-14T08:00:16.580Z,-18371.41
2023-12-14T08:03:19.470Z,-18370.84
2023-12-14T08:06:22.121Z,-18375.81
2023-12-14T08:09:24.684Z,-18377.19
2023-12-14T08:12:27.968Z,-18374.72
2023-12-14T08:15:31.207Z,-18375.81
2023-12-14T08:18:33.903Z,-18376.91
2023-12-14T08:21:36.856Z,-18378.00
2023-12-14T08:24:39.799Z,-18380.06
2023-12-14T08:27:43.401Z,-18380.47
2023-12-14T08:30:46.082Z,-18382.41
2023-12-14T08:33:51.233Z,-18383.50
2023-12-14T08:36:54.114Z,-18383.22
2023-12-14T08:39:57.014Z,-18383.22
2023-12-14T08:42:59.969Z,-18385.03
2023-12-14T08:46:02.558Z,-18388.44
2023-12-14T08:49:05.163Z,-18391.91
2023-12-14T08:52:07.918Z,-18389.56
2023-12-14T08:55:10.750Z,-18389.16
2023-12-14T08:58:13.780Z,-18392.16
2023-12-14T09:01:23.012Z,-18395.88
2023-12-14T09:04:25.946Z,-18398.63
2023-12-14T09:07:29.113Z,-18400.69
2023-12-14T09:10:32.113Z,-18404.81
2023-12-14T09:13:34.648Z,-18409.63
2023-12-14T09:16:38.110Z,-18411.12
2023-12-14T09:19:40.959Z,-18411.25
2023-12-14T09:22:43.914Z,-18415.09
2023-12-14T09:25:46.794Z,-18416.75
2023-12-14T09:28:49.473Z,-18415.81
2023-12-14T09:31:52.741Z,-18418.53
2023-12-14T09:34:57.998Z,-18419.91
2023-12-14T09:38:00.630Z,-18422.78
2023-12-14T09:41:03.955Z,-18425.81
2023-12-14T09:44:08.041Z,-18420.75
2023-12-14T09:47:11.141Z,-18421.44
2023-12-14T09:50:16.207Z,-18425.97
2023-12-14T09:53:19.833Z,-18424.16
2023-12-14T09:56:22.523Z,-18424.44
2023-12-14T09:59:25.569Z,-18424.59
2023-12-14T10:02:28.628Z,-18428.00
2023-12-14T10:05:34.947Z,-18430.75
2023-12-14T10:08:37.656Z,-18429.66
2023-12-14T10:11:44.077Z,-18432.69
2023-12-14T10:14:46.674Z,-18435.16
2023-12-14T10:17:55.208Z,-18437.34
2023-12-14T10:20:58.056Z,-18433.91
2023-12-14T10:24:00.704Z,-18438.59
2023-12-14T10:27:08.291Z,-18441.19
2023-12-14T10:30:13.873Z,-18442.16
2023-12-14T10:33:17.722Z,-18442.97
2023-12-14T10:36:23.720Z,-18439.97
2023-12-14T10:39:27.160Z,-18439.13
2023-12-14T10:42:30.639Z,-18439.28
2023-12-14T10:45:34.048Z,-18438.84
2023-12-14T10:48:38.464Z,-18440.78
2023-12-14T10:51:45.287Z,-18441.19
2023-12-14T10:54:51.205Z,-18444.47
2023-12-14T10:57:54.548Z,-18443.66
2023-12-14T11:01:02.062Z,-18436.81
2023-12-14T11:04:04.428Z,-18442.00
2023-12-14T11:07:07.569Z,-18438.44
2023-12-14T11:10:10.812Z,-18440.50
2023-12-14T11:13:15.713Z,-18439.53
2023-12-14T11:16:20.831Z,-18441.75
2023-12-14T11:19:23.719Z,-18442.28
2023-12-14T11:22:28.501Z,-18442.00
2023-12-14T11:25:38.868Z,-18437.75
2023-12-14T11:28:45.088Z,-18440.09
2023-12-14T11:31:48.152Z,-18439.28
2023-12-14T11:34:50.859Z,-18444.47
2023-12-14T11:37:54.117Z,-18448.31
2023-12-14T11:40:56.847Z,-18445.03
2023-12-14T11:43:59.600Z,-18446.94
2023-12-14T11:47:02.020Z,-18448.88
2023-12-14T11:50:05.001Z,-18442.84
2023-12-14T11:53:08.564Z,-18447.22
2023-12-14T11:56:11.660Z,-18448.75
2023-12-14T11:59:15.636Z,-18449.00
2023-12-14T12:02:24.478Z,-18445.03
2023-12-14T12:05:56.646Z,-18448.31
2023-12-14T12:09:00.032Z,-18448.19
2023-12-14T12:12:04.341Z,-18448.59
2023-12-14T12:15:07.105Z,-18445.44
2023-12-14T12:18:13.497Z,-18445.59
2023-12-14T12:21:16.149Z,-18449.44
2023-12-14T12:24:26.680Z,-18447.78
2023-12-14T12:27:30.243Z,-18446.41
2023-12-14T12:30:33.406Z,-18452.44
2023-12-14T12:33:39.037Z,-18456.56
2023-12-14T12:40:43.597Z,-18450.25
2023-12-14T12:43:46.641Z,-18452.72
2023-12-14T12:46:58.065Z,-18459.03
2023-12-14T12:50:07.695Z,-18472.59
2023-12-14T12:53:10.357Z,-18464.25
2023-12-14T12:56:13.054Z,-18460.94
2023-12-14T12:59:15.762Z,-18458.75
2023-12-14T13:02:18.741Z,-18459.84
2023-12-14T13:05:22.036Z,-18460.94
2023-12-14T13:08:25.245Z,-18459.84
2023-12-14T13:11:29.131Z,-18462.31
2023-12-14T13:14:34.745Z,-18475.50
2023-12-14T13:17:37.643Z,-18485.22
2023-12-14T13:20:41.173Z,-18470.00
2023-12-14T13:23:45.161Z,-18462.88
2023-12-14T13:26:47.841Z,-18462.03
2023-12-14T13:29:52.781Z,-18456.41
2023-12-14T13:32:55.704Z,-18454.91
2023-12-14T13:35:58.299Z,-18453.94
2023-12-14T13:39:02.937Z,-18449.84
2023-12-14T13:42:08.077Z,-18451.63
2023-12-14T13:45:11.198Z,-18454.38
2023-12-14T13:48:13.930Z,-18453.00
2023-12-14T13:51:16.849Z,-18453.00
2023-12-14T13:54:19.532Z,-18447.63
2023-12-14T13:57:23.138Z,-18450.09
2023-12-14T14:00:25.627Z,-18449.16
2023-12-14T14:03:28.816Z,-18446.00
2023-12-14T14:06:32.086Z,-18445.03
2023-12-14T14:09:35.029Z,-18443.38
2023-12-14T14:12:37.958Z,-18439.81
2023-12-14T14:15:40.967Z,-18439.69
2023-12-14T14:18:43.347Z,-18436.38
2023-12-14T14:21:46.302Z,-18433.78
2023-12-14T14:24:49.063Z,-18431.87
2023-12-14T14:27:51.807Z,-18427.19
2023-12-14T14:30:54.190Z,-18426.50
2023-12-14T14:33:57.234Z,-18424.03
2023-12-14T14:37:00.866Z,-18419.78
2023-12-14T14:40:05.891Z,-18420.19
2023-12-14T14:43:09.657Z,-18419.22
2023-12-14T14:46:12.665Z,-18418.53
2023-12-14T14:49:15.233Z,-18416.75
2023-12-14T14:52:18.125Z,-18417.84
2023-12-14T14:55:22.819Z,-18415.66
2023-12-14T14:58:25.512Z,-18415.53
2023-12-14T15:01:27.888Z,-18417.16
2023-12-14T15:08:17.395Z,-18414.84
2023-12-14T15:11:20.380Z,-18414.69
2023-12-14T15:14:23.236Z,-18414.84
2023-12-14T15:17:26.863Z,-18414.00
2023-12-14T15:20:29.637Z,-18413.75
2023-12-14T15:23:32.250Z,-18415.09
2023-12-14T15:26:34.611Z,-18417.44
2023-12-14T15:29:37.506Z,-18417.44
2023-12-14T15:32:40.177Z,-18415.25
2023-12-14T15:35:43.395Z,-18414.28
2023-12-14T15:38:47.294Z,-18413.06
2023-12-14T15:41:50.141Z,-18410.59
2023-12-14T15:44:52.586Z,-18411.81
2023-12-14T15:47:55.638Z,-18413.19
2023-12-14T15:50:58.301Z,-18411.94
2023-12-14T15:54:01.318Z,-18409.47
2023-12-14T15:57:04.135Z,-18407.81
2023-12-14T16:00:06.984Z,-18404.94
2023-12-14T16:03:10.783Z,-18404.53
2023-12-14T16:06:13.779Z,-18404.94
2023-12-14T16:09:17.187Z,-18403.72
2023-12-14T16:12:20.653Z,-18402.63
2023-12-14T16:15:24.083Z,-18402.88
2023-12-14T16:18:26.854Z,-18403.72
2023-12-14T16:21:30.804Z,-18403.56
2023-12-14T16:24:33.578Z,-18400.81
2023-12-14T16:27:37.987Z,-18400.97
2023-12-14T16:30:41.343Z,-18401.25
2023-12-14T16:33:44.232Z,-18399.19
2023-12-14T16:36:48.327Z,-18397.53
2023-12-14T16:39:50.829Z,-18395.59
2023-12-14T16:42:53.739Z,-18394.66
2023-12-14T16:45:57.106Z,-18392.59
2023-12-14T16:48:59.728Z,-18390.09
2023-12-14T16:52:02.954Z,-18390.09
2023-12-14T16:55:08.936Z,-18391.22
2023-12-14T16:58:12.665Z,-18393.41
2023-12-14T17:01:16.387Z,-18391.06
2023-12-14T17:04:19.093Z,-18387.78
2023-12-14T17:07:21.967Z,-18390.66
2023-12-14T17:10:25.301Z,-18392.03
2023-12-14T17:13:28.221Z,-18391.34
2023-12-14T17:16:31.316Z,-18397.81
2023-12-14T17:19:34.229Z,-18397.81
2023-12-14T17:22:38.830Z,-18396.69
2023-12-14T17:25:41.828Z,-18397.81
2023-12-14T17:28:47.905Z,-18397.66
2023-12-14T17:31:50.904Z,-18395.59
2023-12-14T17:34:53.697Z,-18396.97
2023-12-14T17:37:56.681Z,-18398.34
2023-12-14T17:40:59.415Z,-18396.69
2023-12-14T17:44:02.391Z,-18394.91
2023-12-14T17:47:05.528Z,-18394.22
2023-12-14T17:50:11.251Z,-18393.41
2023-12-14T17:53:13.956Z,-18390.66
2023-12-14T17:56:17.109Z,-18389.56
2023-12-14T17:59:19.750Z,-18387.22
2023-12-14T18:02:22.648Z,-18385.03
2023-12-14T18:05:25.415Z,-18382.69
2023-12-14T18:08:27.875Z,-18383.66
2023-12-14T18:11:30.841Z,-18382.81
2023-12-14T18:14:33.445Z,-18379.94
2023-12-14T18:17:36.826Z,-18378.00
2023-12-14T18:20:40.023Z,-18377.59
2023-12-14T18:23:43.152Z,-18377.59
2023-12-14T18:26:46.290Z,-18376.63
2023-12-14T18:29:48.969Z,-18372.50
2023-12-14T18:32:52.667Z,-18375.00
2023-12-14T18:35:55.691Z,-18376.22
2023-12-14T18:38:58.074Z,-18374.56
2023-12-14T18:42:01.046Z,-18374.03
2023-12-14T18:45:03.824Z,-18373.63
2023-12-14T18:48:07.515Z,-18372.94
2023-12-14T18:51:10.422Z,-18370.84
2023-12-14T18:54:13.538Z,-18372.50
2023-12-14T18:57:16.933Z,-18373.75
2023-12-14T19:00:19.843Z,-18373.87
2023-12-14T19:03:22.411Z,-18375.25
2023-12-14T19:06:25.164Z,-18376.38
2023-12-14T19:09:27.567Z,-18376.22
2023-12-14T19:12:30.191Z,-18374.56
2023-12-14T19:15:42.988Z,-18374.84
2023-12-14T19:18:45.939Z,-18375.00
2023-12-14T19:21:49.030Z,-18374.28
2023-12-14T19:24:51.823Z,-18375.13
2023-12-14T19:27:54.240Z,-18375.66
2023-12-14T19:30:56.905Z,-18375.25
2023-12-14T19:33:59.329Z,-18373.06
2023-12-14T19:37:02.265Z,-18370.03
2023-12-14T19:40:06.063Z,-18367.56
2023-12-14T19:43:08.972Z,-18366.75
2023-12-14T19:46:13.785Z,-18366.88
2023-12-14T19:49:16.677Z,-18368.13
2023-12-14T19:52:19.157Z,-18370.03
2023-12-14T19:55:22.128Z,-18372.50
2023-12-14T19:58:24.505Z,-18372.22
2023-12-14T20:01:33.969Z,-18369.22
2023-12-14T20:04:37.000Z,-18366.47
2023-12-14T20:07:39.982Z,-18364.25
2023-12-14T20:10:45.332Z,-18361.38
2023-12-14T20:13:48.130Z,-18360.97
2023-12-14T20:16:51.613Z,-18361.09
2023-12-14T20:19:54.187Z,-18361.38
2023-12-14T20:22:56.936Z,-18362.75
2023-12-14T20:25:59.569Z,-18362.34
2023-12-14T20:29:02.264Z,-18359.88
2023-12-14T20:32:04.930Z,-18365.63
2023-12-14T20:35:08.049Z,-18367.28
2023-12-14T20:38:10.681Z,-18367.69
2023-12-14T20:41:14.749Z,-18365.78
2023-12-14T20:44:17.611Z,-18364.81
2023-12-14T20:47:20.561Z,-18361.66
2023-12-14T20:50:23.027Z,-18357.25
2023-12-14T20:53:26.094Z,-18353.13
2023-12-14T20:56:28.787Z,-18351.47
2023-12-14T20:59:31.816Z,-18350.66
2023-12-14T21:02:34.416Z,-18345.69
2023-12-14T21:05:46.059Z,-18346.78
2023-12-14T21:08:59.358Z,-18346.66
2023-12-14T21:12:24.500Z,-18345.41
2023-12-14T21:15:27.138Z,-18342.53
2023-12-14T21:18:29.918Z,-18339.22
2023-12-14T21:21:32.408Z,-18337.03
2023-12-14T21:24:41.616Z,-18335.38
2023-12-14T21:27:47.942Z,-18335.38
2023-12-14T21:30:51.372Z,-18332.75
2023-12-14T21:33:53.771Z,-18333.03
2023-12-14T21:36:56.516Z,-18333.72
2023-12-14T21:39:58.833Z,-18333.44
2023-12-14T21:43:01.460Z,-18333.59
2023-12-14T21:46:04.127Z,-18333.19
2023-12-14T21:49:14.497Z,-18334.28
2023-12-14T21:52:21.386Z,-18334.56
2023-12-14T21:55:24.375Z,-18335.50
2023-12-14T21:58:27.029Z,-18337.31
2023-12-14T22:01:29.836Z,-18345.56
2023-12-14T22:04:32.797Z,-18352.97
2023-12-14T22:07:35.864Z,-18360.13
2023-12-14T22:10:38.650Z,-18363.44
2023-12-14T22:13:41.278Z,-18363.72
2023-12-14T22:16:44.632Z,-18367.84
2023-12-14T22:19:47.001Z,-18368.38
2023-12-14T22:22:49.690Z,-18369.75
2023-12-14T22:25:52.201Z,-18369.63
2023-12-14T22:28:54.999Z,-18371.56
2023-12-14T22:31:57.765Z,-18370.84
2023-12-14T22:35:00.631Z,-18373.19
2023-12-14T22:38:05.379Z,-18373.34
2023-12-14T22:41:09.160Z,-18378.00
2023-12-14T22:44:11.767Z,-18379.25
2023-12-14T22:47:14.854Z,-18379.66
2023-12-14T22:50:17.755Z,-18379.38
2023-12-14T22:53:28.023Z,-18378.56
2023-12-14T22:56:33.393Z,-18377.19
2023-12-14T22:59:42.248Z,-18380.47
2023-12-14T23:02:51.005Z,-18378.84
2023-12-14T23:05:53.797Z,-18376.63
2023-12-14T23:08:56.115Z,-18378.28
2023-12-14T23:11:59.378Z,-18381.88
2023-12-14T23:15:03.998Z,-18383.38
2023-12-14T23:18:06.957Z,-18387.34
2023-12-14T23:21:10.030Z,-18387.91
2023-12-14T23:24:12.680Z,-18387.34
2023-12-14T23:27:15.235Z,-18385.97
2023-12-14T23:30:18.356Z,-18386.41
2023-12-14T23:33:20.860Z,-18389.28
2023-12-14T23:36:23.930Z,-18393.13
2023-12-14T23:39:26.472Z,-18393.00
2023-12-14T23:42:29.392Z,-18394.78
2023-12-14T23:49:18.419Z,-18393.97
2023-12-14T23:52:21.125Z,-18394.09
2023-12-14T23:55:23.414Z,-18392.59
2023-12-14T23:58:26.214Z,-18392.44
